createdAt,value
2023-02-24T00:01:45.273Z,96.97
2023-02-24T00:04:13.435Z,106.25
2023-02-24T00:06:41.738Z,114.40
2023-02-24T00:09:15.548Z,111.35
2023-02-24T00:11:45.287Z,87.90
2023-02-24T00:14:19.190Z,103.85
2023-02-24T00:16:46.951Z,108.68
2023-02-24T00:19:16.262Z,108.28
2023-02-24T00:21:43.752Z,117.70
2023-02-24T00:24:11.042Z,111.78
2023-02-24T00:26:38.027Z,113.15
2023-02-24T00:29:07.131Z,113.35
2023-02-24T00:31:33.866Z,124.80
2023-02-24T00:34:01.743Z,109.93
2023-02-24T00:36:33.832Z,124.00
2023-02-24T00:39:09.076Z,83.60
2023-02-24T00:41:38.661Z,59.67
2023-02-24T00:44:08.504Z,56.92
2023-02-24T00:46:41.310Z,58.38
2023-02-24T00:49:12.624Z,52.40
2023-02-24T00:51:41.643Z,51.00
2023-02-24T00:54:08.891Z,57.45
2023-02-24T00:56:35.284Z,49.15
2023-02-24T00:59:02.533Z,42.72
2023-02-24T01:01:32.360Z,49.35
2023-02-24T01:04:06.029Z,42.42
2023-02-24T01:06:34.137Z,42.63
2023-02-24T01:09:00.951Z,37.13
2023-02-24T01:11:51.416Z,32.38
2023-02-24T01:14:20.249Z,33.63
2023-02-24T01:16:50.296Z,28.85
2023-02-24T01:19:22.589Z,38.47
2023-02-24T01:21:55.096Z,30.05
2023-02-24T01:24:23.770Z,27.88
2023-02-24T01:26:50.792Z,36.17
2023-02-24T01:29:17.325Z,29.77
2023-02-24T01:31:44.083Z,30.00
2023-02-24T01:34:12.999Z,31.92
2023-02-24T01:36:43.197Z,31.77
2023-02-24T01:39:11.043Z,22.20
2023-02-24T01:41:41.123Z,27.92
2023-02-24T01:44:32.495Z,29.52
2023-02-24T01:47:02.336Z,28.58
2023-02-24T01:49:34.797Z,30.40
2023-02-24T01:52:10.577Z,32.83
2023-02-24T01:54:42.985Z,25.90
2023-02-24T01:57:12.513Z,30.50
2023-02-24T01:59:39.262Z,32.05
2023-02-24T02:02:08.537Z,27.85
2023-02-24T02:04:43.009Z,27.75
2023-02-24T02:07:12.746Z,30.83
2023-02-24T02:09:43.166Z,18.60
2023-02-24T02:12:10.480Z,31.83
2023-02-24T02:14:43.051Z,35.42
2023-02-24T02:17:35.610Z,33.15
2023-02-24T02:20:28.439Z,17.75
2023-02-24T02:23:13.776Z,23.10
2023-02-24T02:26:06.657Z,16.13
2023-02-24T02:29:05.715Z,30.80
2023-02-24T02:36:00.594Z,24.02
2023-02-24T02:38:38.296Z,22.52
2023-02-24T02:41:23.744Z,33.30
2023-02-24T02:44:02.986Z,16.80
2023-02-24T02:46:46.252Z,22.80
2023-02-24T02:49:19.776Z,24.83
2023-02-24T02:51:53.848Z,27.48
2023-02-24T02:54:39.102Z,14.60
2023-02-24T02:57:14.209Z,16.15
2023-02-24T02:59:57.140Z,19.50
2023-02-24T03:02:28.422Z,13.30
2023-02-24T03:04:58.984Z,22.95
2023-02-24T03:07:31.688Z,21.35
2023-02-24T03:10:03.899Z,20.00
2023-02-24T03:12:32.929Z,15.98
2023-02-24T03:15:04.387Z,17.70
2023-02-24T03:17:36.536Z,19.02
2023-02-24T03:20:24.068Z,23.55
2023-02-24T03:22:59.101Z,29.55
2023-02-24T03:25:31.883Z,25.08
2023-02-24T03:28:07.186Z,29.52
2023-02-24T03:30:43.620Z,24.75
2023-02-24T03:33:19.935Z,24.02
2023-02-24T03:35:49.522Z,20.13
2023-02-24T03:38:15.945Z,13.00
2023-02-24T03:40:43.493Z,23.70
2023-02-24T03:43:25.518Z,16.92
2023-02-24T03:45:54.828Z,31.38
2023-02-24T03:48:24.950Z,28.50
2023-02-24T03:50:53.122Z,31.80
2023-02-24T03:53:53.266Z,23.20
2023-02-24T03:56:33.922Z,28.75
2023-02-24T03:59:25.565Z,20.02
2023-02-24T04:02:15.994Z,17.83
2023-02-24T04:04:57.218Z,20.30
2023-02-24T04:07:58.134Z,28.40
2023-02-24T04:10:52.420Z,17.35
2023-02-24T04:13:35.178Z,22.75
2023-02-24T04:16:16.926Z,27.42
2023-02-24T04:18:50.076Z,24.58
2023-02-24T04:21:20.301Z,28.40
2023-02-24T04:23:47.749Z,25.90
2023-02-24T04:26:17.928Z,14.38
2023-02-24T04:28:48.498Z,19.27
2023-02-24T04:31:18.469Z,23.35
2023-02-24T04:33:55.016Z,18.70
2023-02-24T04:36:30.317Z,17.50
2023-02-24T04:38:56.830Z,20.10
2023-02-24T04:41:23.785Z,15.52
2023-02-24T04:43:50.913Z,23.77
2023-02-24T04:46:18.959Z,14.68
2023-02-24T04:48:45.950Z,20.88
2023-02-24T04:51:13.572Z,17.40
2023-02-24T04:53:40.006Z,12.55
2023-02-24T04:56:09.481Z,16.27
2023-02-24T04:58:39.902Z,28.00
2023-02-24T05:01:10.239Z,20.55
2023-02-24T05:03:38.446Z,13.73
2023-02-24T05:06:06.294Z,12.20
2023-02-24T05:08:32.887Z,17.35
2023-02-24T05:11:05.747Z,28.08
2023-02-24T05:13:32.788Z,12.57
2023-02-24T05:16:06.687Z,16.80
2023-02-24T05:18:37.093Z,16.83
2023-02-24T05:21:31.012Z,13.75
2023-02-24T05:24:06.331Z,15.55
2023-02-24T05:26:35.894Z,12.77
2023-02-24T05:29:04.287Z,13.55
2023-02-24T05:31:30.983Z,15.65
2023-02-24T05:34:03.828Z,20.17
2023-02-24T05:36:34.133Z,15.52
2023-02-24T05:39:07.609Z,13.50
2023-02-24T05:41:41.846Z,19.73
2023-02-24T05:44:16.049Z,13.70
2023-02-24T05:46:46.611Z,19.88
2023-02-24T05:49:20.582Z,16.80
2023-02-24T05:51:54.567Z,11.15
2023-02-24T05:54:23.954Z,10.45
2023-02-24T05:56:50.353Z,17.20
2023-02-24T05:59:21.502Z,23.52
2023-02-24T06:01:49.522Z,13.32
2023-02-24T06:04:27.868Z,15.85
2023-02-24T06:06:54.287Z,9.40
2023-02-24T06:09:23.115Z,9.90
2023-02-24T06:11:50.178Z,14.18
2023-02-24T06:14:16.653Z,19.85
2023-02-24T06:16:45.812Z,12.38
2023-02-24T06:19:13.543Z,13.88
2023-02-24T06:21:41.585Z,13.63
2023-02-24T06:24:18.491Z,10.95
2023-02-24T06:26:45.634Z,12.88
2023-02-24T06:29:16.826Z,12.32
2023-02-24T06:34:13.090Z,13.07
2023-02-24T06:36:39.726Z,16.75
2023-02-24T06:39:09.396Z,14.70
2023-02-24T06:41:37.869Z,12.50
2023-02-24T06:44:04.945Z,9.77
2023-02-24T06:46:31.490Z,10.55
2023-02-24T06:48:58.993Z,20.58
2023-02-24T06:51:30.041Z,14.18
2023-02-24T06:56:23.495Z,13.02
2023-02-24T06:58:52.683Z,13.88
2023-02-24T07:01:25.463Z,13.32
2023-02-24T07:04:02.529Z,8.35
2023-02-24T07:06:31.927Z,9.68
2023-02-24T07:08:58.960Z,11.32
2023-02-24T07:11:25.579Z,11.18
2023-02-24T07:13:54.425Z,11.60
2023-02-24T07:16:25.595Z,14.48
2023-02-24T07:18:56.938Z,19.65
2023-02-24T07:21:25.939Z,27.17
2023-02-24T07:23:59.672Z,15.60
2023-02-24T07:26:27.752Z,18.95
2023-02-24T07:28:55.085Z,12.60
2023-02-24T07:31:24.337Z,16.55
2023-02-24T07:33:56.701Z,11.85
2023-02-24T07:36:23.728Z,10.77
2023-02-24T07:38:52.734Z,11.68
2023-02-24T07:41:22.698Z,12.60
2023-02-24T07:43:51.703Z,17.05
2023-02-24T07:46:25.425Z,15.32
2023-02-24T07:48:53.456Z,10.55
2023-02-24T07:51:22.736Z,16.58
2023-02-24T07:53:52.901Z,20.63
2023-02-24T07:56:26.839Z,14.32
2023-02-24T07:58:59.271Z,12.25
2023-02-24T08:01:32.277Z,18.23
2023-02-24T08:04:03.107Z,17.80
2023-02-24T08:06:45.482Z,28.42
2023-02-24T08:09:17.172Z,14.23
2023-02-24T08:11:53.644Z,17.58
2023-02-24T08:14:23.594Z,14.40
2023-02-24T08:16:59.404Z,8.43
2023-02-24T08:19:33.560Z,18.25
2023-02-24T08:22:19.406Z,14.85
2023-02-24T08:24:50.120Z,12.50
2023-02-24T08:27:20.031Z,8.65
2023-02-24T08:30:01.578Z,18.73
2023-02-24T08:32:43.463Z,9.98
2023-02-24T08:35:16.817Z,7.20
2023-02-24T08:37:48.318Z,12.05
2023-02-24T08:40:33.818Z,14.10
2023-02-24T08:43:32.681Z,14.02
2023-02-24T08:46:13.503Z,14.90
2023-02-24T08:48:46.516Z,12.38
2023-02-24T08:51:28.678Z,19.00
2023-02-24T08:53:58.776Z,17.10
2023-02-24T08:56:29.525Z,10.18
2023-02-24T08:59:06.184Z,10.18
2023-02-24T09:01:39.175Z,11.93
2023-02-24T09:04:11.760Z,10.80
2023-02-24T09:06:47.892Z,14.07
2023-02-24T09:09:22.710Z,9.65
2023-02-24T09:11:58.134Z,13.70
2023-02-24T09:14:28.917Z,21.48
2023-02-24T09:19:49.782Z,11.57
2023-02-24T09:22:40.671Z,13.10
2023-02-24T09:25:25.985Z,16.40
2023-02-24T09:28:24.596Z,17.35
2023-02-24T09:30:55.320Z,8.20
2023-02-24T09:33:41.866Z,10.15
2023-02-24T09:36:28.389Z,8.93
2023-02-24T09:38:59.505Z,7.40
2023-02-24T09:44:42.391Z,12.75
2023-02-24T09:47:19.822Z,10.98
2023-02-24T09:49:56.237Z,12.60
2023-02-24T09:52:39.730Z,11.50
2023-02-24T09:55:27.878Z,14.30
2023-02-24T09:58:19.043Z,9.82
2023-02-24T10:00:55.652Z,7.82
2023-02-24T10:03:42.625Z,9.93
2023-02-24T10:06:20.540Z,13.00
2023-02-24T10:09:11.678Z,14.65
2023-02-24T10:14:19.341Z,7.13
2023-02-24T10:17:07.324Z,8.95
2023-02-24T10:19:34.358Z,9.75
2023-02-24T10:22:08.154Z,12.88
2023-02-24T10:24:47.542Z,11.50
2023-02-24T10:27:23.922Z,11.85
2023-02-24T10:30:07.873Z,5.32
2023-02-24T10:32:52.144Z,9.02
2023-02-24T10:35:26.006Z,9.15
2023-02-24T10:37:53.785Z,6.82
2023-02-24T10:40:43.815Z,11.82
2023-02-24T10:43:17.688Z,8.95
2023-02-24T10:45:46.280Z,11.50
2023-02-24T10:48:41.026Z,10.05
2023-02-24T10:51:33.237Z,15.10
2023-02-24T10:54:22.882Z,10.50
2023-02-24T10:57:11.372Z,13.55
2023-02-24T11:00:05.746Z,11.98
2023-02-24T11:03:06.894Z,19.13
2023-02-24T11:05:38.748Z,7.38
2023-02-24T11:08:33.738Z,9.25
2023-02-24T11:11:07.100Z,9.23
2023-02-24T11:14:08.601Z,12.40
2023-02-24T11:17:04.110Z,13.57
2023-02-24T11:19:32.426Z,10.27
2023-02-24T11:21:59.962Z,16.55
2023-02-24T11:24:30.709Z,11.80
2023-02-24T11:26:57.538Z,10.57
2023-02-24T11:29:41.841Z,11.73
2023-02-24T11:32:25.512Z,13.10
2023-02-24T11:35:16.105Z,14.65
2023-02-24T11:37:46.329Z,5.38
2023-02-24T11:40:23.634Z,9.40
2023-02-24T11:42:56.934Z,13.63
2023-02-24T11:45:35.619Z,9.48
2023-02-24T11:48:15.462Z,12.25
2023-02-24T11:50:50.711Z,7.38
2023-02-24T11:53:26.865Z,8.57
2023-02-24T11:56:09.798Z,11.60
2023-02-24T11:58:45.104Z,8.00
2023-02-24T12:01:20.002Z,15.85
2023-02-24T12:03:56.827Z,11.10
2023-02-24T12:06:33.654Z,7.57
2023-02-24T12:09:09.232Z,9.82
2023-02-24T12:12:13.821Z,7.63
2023-02-24T12:14:51.704Z,8.43
2023-02-24T12:17:27.000Z,8.95
2023-02-24T12:20:06.845Z,9.20
2023-02-24T12:22:44.661Z,7.18
2023-02-24T12:25:13.132Z,13.60
2023-02-24T12:27:49.022Z,7.07
2023-02-24T12:30:38.329Z,19.40
2023-02-24T12:33:20.528Z,8.57
2023-02-24T12:35:57.929Z,8.75
2023-02-24T12:38:48.505Z,6.32
2023-02-24T12:41:48.340Z,14.65
2023-02-24T12:44:41.722Z,8.88
2023-02-24T12:47:21.036Z,7.75
2023-02-24T12:50:25.253Z,8.90
2023-02-24T12:53:06.539Z,6.60
2023-02-24T12:58:20.967Z,7.35
2023-02-24T13:01:05.984Z,8.45
2023-02-24T13:03:50.145Z,11.48
2023-02-24T13:06:41.436Z,9.35
2023-02-24T13:11:57.503Z,13.15
2023-02-24T13:14:35.645Z,7.63
2023-02-24T13:17:10.881Z,7.72
2023-02-24T13:19:39.895Z,7.22
2023-02-24T13:22:12.179Z,10.07
2023-02-24T13:25:04.264Z,13.32
2023-02-24T13:27:36.802Z,7.45
2023-02-24T13:30:12.226Z,13.00
2023-02-24T13:32:42.346Z,6.60
2023-02-24T13:35:30.377Z,8.60
2023-02-24T13:38:08.596Z,9.52
2023-02-24T13:41:16.618Z,8.90
2023-02-24T13:43:53.826Z,12.18
2023-02-24T13:46:20.553Z,5.88
2023-02-24T13:49:24.203Z,9.77
2023-02-24T13:51:59.928Z,6.97
2023-02-24T13:54:59.036Z,8.07
2023-02-24T13:57:54.845Z,13.75
2023-02-24T14:00:32.444Z,12.65
2023-02-24T14:02:59.961Z,12.38
2023-02-24T14:05:32.101Z,10.10
2023-02-24T14:07:59.520Z,11.23
2023-02-24T14:10:31.067Z,11.57
2023-02-24T14:13:14.559Z,7.88
2023-02-24T14:15:43.691Z,6.50
2023-02-24T14:18:19.608Z,9.93
2023-02-24T14:20:46.013Z,9.30
2023-02-24T14:23:30.012Z,6.50
2023-02-24T14:25:59.527Z,9.60
2023-02-24T14:28:31.846Z,5.72
2023-02-24T14:31:06.730Z,8.27
2023-02-24T14:33:35.772Z,8.93
2023-02-24T14:36:06.113Z,9.30
2023-02-24T14:38:36.114Z,8.35
2023-02-24T14:41:05.996Z,9.75
2023-02-24T14:43:32.653Z,6.68
2023-02-24T14:46:05.665Z,9.43
2023-02-24T14:48:32.490Z,6.43
2023-02-24T14:51:05.514Z,7.28
2023-02-24T14:53:35.599Z,8.77
2023-02-24T14:56:05.834Z,8.40
2023-02-24T14:58:43.756Z,5.80
2023-02-24T15:01:49.680Z,13.02
2023-02-24T15:04:32.900Z,8.55
2023-02-24T15:07:03.488Z,4.28
2023-02-24T15:09:36.674Z,7.40
2023-02-24T15:12:13.974Z,7.00
2023-02-24T15:14:47.372Z,5.68
2023-02-24T15:17:19.898Z,5.55
2023-02-24T15:19:49.032Z,7.00
2023-02-24T15:22:25.392Z,6.18
2023-02-24T15:24:55.905Z,4.85
2023-02-24T15:27:26.731Z,5.63
2023-02-24T15:30:03.008Z,6.15
2023-02-24T15:32:31.792Z,10.10
2023-02-24T15:34:58.950Z,7.15
2023-02-24T15:37:37.712Z,4.65
2023-02-24T15:40:21.644Z,5.57
2023-02-24T15:43:00.297Z,5.15
2023-02-24T15:45:37.715Z,4.97
2023-02-24T15:48:21.911Z,4.47
2023-02-24T15:50:50.285Z,5.95
2023-02-24T15:53:17.033Z,9.25
2023-02-24T15:55:43.626Z,10.25
2023-02-24T15:58:19.781Z,6.80
2023-02-24T16:00:46.466Z,5.60
2023-02-24T16:03:12.884Z,5.22
2023-02-24T16:05:39.442Z,8.75
2023-02-24T16:08:13.538Z,10.35
2023-02-24T16:10:40.575Z,6.32
2023-02-24T16:13:17.301Z,7.72
2023-02-24T16:15:45.035Z,11.25
2023-02-24T16:18:20.913Z,8.77
2023-02-24T16:20:54.335Z,10.55
2023-02-24T16:23:22.922Z,9.60
2023-02-24T16:25:53.929Z,9.77
2023-02-24T16:28:21.324Z,9.55
2023-02-24T16:30:49.681Z,11.85
2023-02-24T16:33:17.943Z,12.98
2023-02-24T16:35:45.186Z,13.02
2023-02-24T16:38:16.395Z,12.93
2023-02-24T16:40:45.433Z,12.55
2023-02-24T16:43:13.324Z,10.10
2023-02-24T16:45:41.273Z,12.52
2023-02-24T16:48:20.599Z,12.13
2023-02-24T16:50:47.890Z,15.93
2023-02-24T16:53:17.242Z,13.73
2023-02-24T16:55:43.658Z,14.40
2023-02-24T16:58:11.652Z,14.07
2023-02-24T17:00:39.479Z,15.02
2023-02-24T17:03:16.772Z,20.02
2023-02-24T17:05:44.356Z,16.88
2023-02-24T17:08:11.593Z,14.20
2023-02-24T17:10:39.281Z,17.75
2023-02-24T17:13:07.064Z,16.92
2023-02-24T17:15:33.565Z,18.05
2023-02-24T17:18:00.008Z,25.95
2023-02-24T17:20:26.975Z,20.15
2023-02-24T17:22:53.782Z,22.98
2023-02-24T17:25:26.914Z,21.00
2023-02-24T17:27:54.518Z,21.20
2023-02-24T17:30:26.891Z,22.27
2023-02-24T17:32:53.662Z,22.05
2023-02-24T17:35:20.153Z,23.80
2023-02-24T17:37:46.573Z,23.23
2023-02-24T17:40:13.402Z,25.85
2023-02-24T17:43:03.802Z,24.38
2023-02-24T17:45:30.347Z,24.83
2023-02-24T17:47:56.759Z,23.75
2023-02-24T17:50:23.151Z,24.75
2023-02-24T17:52:52.251Z,27.13
2023-02-24T17:55:24.380Z,25.52
2023-02-24T17:57:55.682Z,28.05
2023-02-24T18:00:23.234Z,28.05
2023-02-24T18:02:49.713Z,31.25
2023-02-24T18:05:16.172Z,29.23
2023-02-24T18:07:42.648Z,31.38
2023-02-24T18:10:09.464Z,30.80
2023-02-24T18:12:35.976Z,33.22
2023-02-24T18:15:08.539Z,32.58
2023-02-24T18:17:36.776Z,27.73
2023-02-24T18:20:04.217Z,28.13
2023-02-24T18:22:30.667Z,32.42
2023-02-24T18:24:57.146Z,31.20
2023-02-24T18:27:23.579Z,32.28
2023-02-24T18:29:49.966Z,37.25
2023-02-24T18:32:16.623Z,29.10
2023-02-24T18:34:43.214Z,31.73
2023-02-24T18:37:09.614Z,33.50
2023-02-24T18:39:36.024Z,34.83
2023-02-24T18:42:02.439Z,31.92
2023-02-24T18:44:29.417Z,33.13
2023-02-24T18:46:55.918Z,32.70
2023-02-24T18:49:22.358Z,33.08
2023-02-24T18:51:49.065Z,34.63
2023-02-24T18:54:16.411Z,34.70
2023-02-24T18:56:43.162Z,39.10
2023-02-24T18:59:09.795Z,34.17
2023-02-24T19:01:38.966Z,30.77
2023-02-24T19:04:07.240Z,35.88
2023-02-24T19:06:35.326Z,38.10
2023-02-24T19:09:11.848Z,32.97
2023-02-24T19:11:39.601Z,32.03
2023-02-24T19:14:06.702Z,35.53
2023-02-24T19:16:33.930Z,37.30
2023-02-24T19:19:00.492Z,29.95
2023-02-24T19:21:29.460Z,34.00
2023-02-24T19:23:55.867Z,38.05
2023-02-24T19:26:25.549Z,37.15
2023-02-24T19:28:53.326Z,35.60
2023-02-24T19:31:25.902Z,37.55
2023-02-24T19:33:53.375Z,32.92
2023-02-24T19:36:20.857Z,30.85
2023-02-24T19:38:47.485Z,36.80
2023-02-24T19:41:14.002Z,37.05
2023-02-24T19:43:42.058Z,41.60
2023-02-24T19:46:10.774Z,37.47
2023-02-24T19:48:37.430Z,33.53
2023-02-24T19:51:24.030Z,37.97
2023-02-24T19:53:55.404Z,33.15
2023-02-24T19:56:28.059Z,38.70
2023-02-24T19:58:57.437Z,32.83
2023-02-24T20:01:25.089Z,36.08
2023-02-24T20:03:54.792Z,40.42
2023-02-24T20:06:27.037Z,37.75
2023-02-24T20:08:54.285Z,36.47
2023-02-24T20:11:21.395Z,38.03
2023-02-24T20:13:48.123Z,41.60
2023-02-24T20:16:17.600Z,41.97
2023-02-24T20:18:44.680Z,40.05
2023-02-24T20:21:12.257Z,42.80
2023-02-24T20:23:39.877Z,38.42
2023-02-24T20:26:06.984Z,40.20
2023-02-24T20:28:33.544Z,48.00
2023-02-24T20:31:06.635Z,44.38
2023-02-24T20:33:33.248Z,43.53
2023-02-24T20:35:59.674Z,40.65
2023-02-24T20:38:26.083Z,45.10
2023-02-24T20:40:59.891Z,46.65
2023-02-24T20:43:27.159Z,41.05
2023-02-24T20:45:53.620Z,42.67
2023-02-24T20:48:20.465Z,44.10
2023-02-24T20:50:46.871Z,47.55
2023-02-24T20:53:13.307Z,46.22
2023-02-24T20:55:39.760Z,43.92
2023-02-24T20:58:06.474Z,49.15
2023-02-24T21:00:38.414Z,46.55
2023-02-24T21:03:07.674Z,46.42
2023-02-24T21:05:34.422Z,45.40
2023-02-24T21:08:00.919Z,49.20
2023-02-24T21:10:27.419Z,47.30
2023-02-24T21:12:53.820Z,45.42
2023-02-24T21:15:20.249Z,42.72
2023-02-24T21:17:46.663Z,47.83
2023-02-24T21:20:13.945Z,44.03
2023-02-24T21:22:41.475Z,43.03
2023-02-24T21:25:10.709Z,42.53
2023-02-24T21:27:38.349Z,41.60
2023-02-24T21:30:10.304Z,50.45
2023-02-24T21:32:37.176Z,41.20
2023-02-24T21:35:04.005Z,38.42
2023-02-24T21:37:30.419Z,44.53
2023-02-24T21:39:56.877Z,37.75
2023-02-24T21:42:23.528Z,37.70
2023-02-24T21:44:52.959Z,39.38
2023-02-24T21:47:20.402Z,43.72
2023-02-24T21:49:46.832Z,38.60
2023-02-24T21:52:13.462Z,40.08
2023-02-24T21:54:40.195Z,37.30
2023-02-24T21:57:06.611Z,36.78
2023-02-24T21:59:33.017Z,37.83
2023-02-24T22:01:59.535Z,38.00
2023-02-24T22:04:26.048Z,35.70
2023-02-24T22:06:52.474Z,37.80
2023-02-24T22:09:19.354Z,43.35
2023-02-24T22:11:47.522Z,35.85
2023-02-24T22:14:15.014Z,44.40
2023-02-24T22:16:42.214Z,39.83
2023-02-24T22:19:08.861Z,41.13
2023-02-24T22:21:35.339Z,42.55
2023-02-24T22:24:03.302Z,32.58
2023-02-24T22:26:30.802Z,37.00
2023-02-24T22:28:57.791Z,29.10
2023-02-24T22:31:27.384Z,25.85
2023-02-24T22:33:53.859Z,26.33
2023-02-24T22:36:25.030Z,30.00
2023-02-24T22:38:52.013Z,27.35
2023-02-24T22:41:22.028Z,25.88
2023-02-24T22:43:48.496Z,25.52
2023-02-24T22:46:18.277Z,31.73
2023-02-24T22:48:44.781Z,23.27
2023-02-24T22:51:13.062Z,24.67
2023-02-24T22:53:42.497Z,26.90
2023-02-24T22:56:12.084Z,36.90
2023-02-24T22:58:38.925Z,26.05
2023-02-24T23:01:10.853Z,21.83
2023-02-24T23:03:37.393Z,21.17
2023-02-24T23:06:07.028Z,27.80
2023-02-24T23:08:36.693Z,26.38
2023-02-24T23:11:09.133Z,21.15
2023-02-24T23:13:35.651Z,21.90
2023-02-24T23:16:03.513Z,24.35
2023-02-24T23:18:31.463Z,22.52
2023-02-24T23:20:59.573Z,30.20
2023-02-24T23:23:27.608Z,20.67
2023-02-24T23:25:54.103Z,21.48
2023-02-24T23:28:20.898Z,23.38
2023-02-24T23:30:48.042Z,16.77
2023-02-24T23:33:14.892Z,24.95
2023-02-24T23:35:42.194Z,19.65
2023-02-24T23:38:09.251Z,28.35
2023-02-24T23:40:49.266Z,21.48
2023-02-24T23:43:16.736Z,34.10
2023-02-24T23:45:43.171Z,27.27
2023-02-24T23:48:10.987Z,27.98
2023-02-24T23:50:37.755Z,31.63
2023-02-24T23:53:04.642Z,22.73
2023-02-24T23:55:33.958Z,36.00
2023-02-24T23:58:01.585Z,23.02
